Time;durP1;ratioP1;P1;durP2;ratioP2;P2;SDS_P1;SDS_P2;PMS_P1;PMS_P2;Temp;Humidity;BMP_temperature;BMP_pressure;BME280_temperature;BME280_humidity;BME280_pressure;Samples;Min_cycle;Max_cycle;Signal;HPM_P1;HPM_P2
2023/03/23 00:01:20;;;;;;;0.50;0.32;;;13.20;99.90;;;;;;4995406;28;20668;-70
2023/03/23 00:03:49;;;;;;;0.60;0.40;;;13.20;99.90;;;;;;4987157;28;20295;-69
2023/03/23 00:06:18;;;;;;;1.00;0.90;;;13.20;99.90;;;;;;5012970;28;20227;-68
2023/03/23 00:08:46;;;;;;;0.50;0.40;;;13.20;99.90;;;;;;5012479;28;20231;-68
2023/03/23 00:11:14;;;;;;;0.73;0.43;;;13.10;99.90;;;;;;5012892;28;20552;-69
2023/03/23 00:13:42;;;;;;;0.50;0.30;;;13.20;99.90;;;;;;5012296;28;20205;-69
2023/03/23 00:16:16;;;;;;;0.50;0.40;;;13.10;99.90;;;;;;5012760;28;20288;-69
2023/03/23 00:18:44;;;;;;;0.50;0.35;;;13.10;99.90;;;;;;4995066;28;20224;-70
2023/03/23 00:21:11;;;;;;;0.50;0.40;;;13.10;99.90;;;;;;4993304;28;20581;-70
2023/03/23 00:23:40;;;;;;;0.60;0.40;;;13.10;99.90;;;;;;4991924;28;20734;-71
2023/03/23 00:26:08;;;;;;;0.50;0.30;;;13.10;99.90;;;;;;4991859;28;20634;-70
2023/03/23 00:28:35;;;;;;;0.50;0.30;;;13.10;99.90;;;;;;5010429;28;20696;-74
2023/03/23 00:31:05;;;;;;;0.50;0.30;;;13.10;99.90;;;;;;4991947;28;20210;-69
2023/03/23 00:33:37;;;;;;;0.50;0.30;;;13.10;99.90;;;;;;4992989;28;20209;-69
2023/03/23 00:36:05;;;;;;;0.50;0.30;;;13.10;99.90;;;;;;4990888;28;20214;-71
2023/03/23 00:38:32;;;;;;;0.50;0.40;;;13.10;99.90;;;;;;4987690;28;20229;-69
2023/03/23 00:41:02;;;;;;;0.50;0.30;;;13.10;99.90;;;;;;5006638;28;20205;-70
2023/03/23 00:43:30;;;;;;;0.50;0.40;;;13.10;99.90;;;;;;5011652;28;20209;-74
2023/03/23 00:46:00;;;;;;;0.60;0.43;;;13.10;99.90;;;;;;5012444;28;20696;-70
2023/03/23 00:48:29;;;;;;;0.50;0.40;;;13.20;99.90;;;;;;5005200;28;20808;-70
2023/03/23 00:50:56;;;;;;;0.50;0.40;;;13.20;99.90;;;;;;4990882;28;20245;-72
2023/03/23 00:53:24;;;;;;;0.73;0.60;;;13.30;99.90;;;;;;4989268;28;20205;-70
2023/03/23 00:55:51;;;;;;;0.60;0.60;;;13.30;99.90;;;;;;4993224;28;20201;-70
2023/03/23 00:58:19;;;;;;;0.50;0.30;;;13.30;99.90;;;;;;5009359;28;20351;-70
2023/03/23 01:00:46;;;;;;;0.50;0.40;;;13.30;99.90;;;;;;4991481;28;20205;-71
2023/03/23 01:03:17;;;;;;;0.50;0.40;;;13.30;99.90;;;;;;4989660;28;20217;-82
2023/03/23 01:05:46;;;;;;;0.50;0.30;;;13.30;99.90;;;;;;5011168;28;20217;-70
2023/03/23 01:08:14;;;;;;;1.33;0.50;;;13.30;99.90;;;;;;4987083;28;20225;-71
2023/03/23 01:10:41;;;;;;;0.50;0.30;;;13.30;99.90;;;;;;5008510;28;20214;-71
2023/03/23 01:13:08;;;;;;;1.05;0.60;;;13.30;99.90;;;;;;4996610;28;20209;-72
2023/03/23 01:15:37;;;;;;;0.50;0.30;;;13.20;99.90;;;;;;4989574;28;20580;-71
2023/03/23 01:18:04;;;;;;;0.50;0.30;;;13.20;99.90;;;;;;4990125;28;20197;-72
2023/03/23 01:20:32;;;;;;;0.80;0.40;;;13.20;99.90;;;;;;5006580;28;20213;-72
2023/03/23 01:23:00;;;;;;;0.50;0.30;;;13.10;99.90;;;;;;5010237;28;20206;-70
2023/03/23 01:25:28;;;;;;;0.50;0.30;;;13.10;99.90;;;;;;4991109;28;20217;-69
2023/03/23 01:27:55;;;;;;;0.50;0.30;;;13.10;99.90;;;;;;4990262;28;20346;-70
2023/03/23 01:30:23;;;;;;;0.50;0.30;;;13.20;99.90;;;;;;5007517;28;20220;-71
2023/03/23 01:32:51;;;;;;;0.60;0.40;;;13.20;99.90;;;;;;4986802;28;20205;-74
2023/03/23 01:35:18;;;;;;;0.70;0.70;;;13.20;99.90;;;;;;5006842;28;20224;-75
2023/03/23 01:37:47;;;;;;;0.50;0.30;;;13.20;99.90;;;;;;4989216;28;20201;-71
2023/03/23 01:40:15;;;;;;;0.50;0.30;;;13.20;99.90;;;;;;4990676;28;20685;-70
2023/03/23 01:42:42;;;;;;;0.50;0.30;;;13.20;99.90;;;;;;5002892;28;20204;-71
2023/03/23 01:45:31;;;;;;;0.50;0.30;;;13.20;99.90;;;;;;4996132;28;20201;-74
2023/03/23 01:48:11;;;;;;;0.60;0.40;;;13.20;99.90;;;;;;4989147;28;21067;-70
2023/03/23 01:50:47;;;;;;;0.50;0.40;;;13.20;99.90;;;;;;5008208;28;20237;-70
2023/03/23 01:53:15;;;;;;;0.93;0.65;;;13.20;99.90;;;;;;5007272;28;20211;-70
2023/03/23 01:55:48;;;;;;;0.50;0.30;;;13.20;99.90;;;;;;4989996;28;20208;-72
2023/03/23 01:58:16;;;;;;;0.50;0.30;;;13.20;99.90;;;;;;4988565;28;20578;-73
2023/03/23 02:00:44;;;;;;;0.80;0.40;;;13.20;99.90;;;;;;5008835;28;20233;-70
2023/03/23 02:03:15;;;;;;;0.50;0.30;;;13.30;99.90;;;;;;5006300;28;20648;-70
2023/03/23 02:05:43;;;;;;;0.77;0.68;;;13.30;99.90;;;;;;5006216;28;20221;-71
2023/03/23 02:08:13;;;;;;;0.50;0.30;;;13.30;99.90;;;;;;5009267;28;20598;-72
2023/03/23 02:10:40;;;;;;;0.50;0.30;;;13.30;99.90;;;;;;4990482;28;20205;-70
2023/03/23 02:13:10;;;;;;;0.50;0.40;;;13.30;99.90;;;;;;4991569;28;20193;-70
2023/03/23 02:15:56;;;;;;;0.50;0.40;;;13.30;99.90;;;;;;5008767;28;20201;-74
2023/03/23 02:18:39;;;;;;;0.50;0.30;;;13.30;99.90;;;;;;5002168;28;20231;-70
2023/03/23 02:21:42;;;;;;;0.60;0.40;;;13.30;99.90;;;;;;5005091;28;20259;-70
2023/03/23 02:24:31;;;;;;;0.50;0.40;;;13.30;99.90;;;;;;4953386;28;20240;-72
2023/03/23 02:27:02;;;;;;;0.50;0.30;;;13.40;99.90;;;;;;4992188;28;20241;-70
2023/03/23 02:30:00;;;;;;;0.50;0.30;;;13.40;99.90;;;;;;4993291;28;20321;-70
2023/03/23 02:32:49;;;;;;;0.50;0.40;;;13.40;99.90;;;;;;4973209;28;20233;-71
2023/03/23 02:35:21;;;;;;;0.50;0.40;;;13.40;99.90;;;;;;4990555;28;20730;-71
2023/03/23 02:37:52;;;;;;;0.60;0.50;;;13.40;99.90;;;;;;5012767;28;20212;-71
2023/03/23 02:40:22;;;;;;;0.50;0.30;;;13.40;99.90;;;;;;4992612;28;20205;-71
2023/03/23 02:42:53;;;;;;;0.50;0.40;;;13.40;99.90;;;;;;4997382;28;20205;-70
2023/03/23 02:45:21;;;;;;;0.50;0.30;;;13.40;99.90;;;;;;4999451;28;20671;-71
2023/03/23 02:47:51;;;;;;;0.50;0.40;;;13.30;99.90;;;;;;4991022;28;20209;-72
2023/03/23 02:50:23;;;;;;;0.50;0.30;;;13.20;99.90;;;;;;4991397;28;20622;-71
2023/03/23 02:52:51;;;;;;;0.70;0.40;;;13.00;99.90;;;;;;4992742;28;20312;-72
2023/03/23 02:55:20;;;;;;;0.50;0.30;;;13.00;99.90;;;;;;4992856;28;20212;-71
2023/03/23 02:57:48;;;;;;;0.50;0.30;;;12.90;99.90;;;;;;4992338;28;20216;-72
2023/03/23 03:00:18;;;;;;;0.88;0.55;;;12.80;99.90;;;;;;4988695;28;20750;-73
2023/03/23 03:02:52;;;;;;;0.50;0.30;;;12.80;99.90;;;;;;4990382;28;20210;-71
2023/03/23 03:05:27;;;;;;;0.50;0.40;;;12.80;99.90;;;;;;4989252;28;20202;-70
2023/03/23 03:08:06;;;;;;;0.50;0.30;;;12.80;99.90;;;;;;4990347;28;20246;-69
2023/03/23 03:10:42;;;;;;;0.50;0.30;;;12.70;99.90;;;;;;4989905;28;20634;-70
2023/03/23 03:13:15;;;;;;;0.50;0.40;;;12.70;99.90;;;;;;4988131;28;20206;-70
2023/03/23 03:15:48;;;;;;;0.50;0.30;;;12.70;99.90;;;;;;4988621;28;20697;-71
2023/03/23 03:18:19;;;;;;;0.77;0.68;;;12.60;99.90;;;;;;4986636;28;20218;-71
2023/03/23 03:20:50;;;;;;;0.50;0.30;;;12.60;99.90;;;;;;4988875;28;20736;-71
2023/03/23 03:23:18;;;;;;;0.50;0.40;;;12.60;99.90;;;;;;4985844;28;20570;-70
2023/03/23 03:25:48;;;;;;;0.50;0.40;;;12.50;99.90;;;;;;4990208;28;20276;-71
2023/03/23 03:28:21;;;;;;;0.90;0.40;;;12.50;99.90;;;;;;4991158;28;20222;-71
2023/03/23 03:30:53;;;;;;;0.50;0.40;;;12.50;99.90;;;;;;4989438;28;20217;-70
2023/03/23 03:33:25;;;;;;;0.50;0.30;;;12.40;99.90;;;;;;4990438;28;20677;-70
2023/03/23 03:35:55;;;;;;;0.70;0.50;;;12.40;99.90;;;;;;4986946;28;20202;-71
2023/03/23 03:38:22;;;;;;;0.50;0.40;;;12.30;99.90;;;;;;4988657;28;20606;-71
2023/03/23 03:40:49;;;;;;;0.75;0.45;;;12.30;99.90;;;;;;4990051;28;20211;-72
2023/03/23 03:43:16;;;;;;;0.60;0.40;;;12.20;99.90;;;;;;4991161;28;20198;-70
2023/03/23 03:45:44;;;;;;;0.50;0.40;;;12.20;99.90;;;;;;4990210;28;20202;-70
2023/03/23 03:48:11;;;;;;;0.50;0.30;;;12.30;99.90;;;;;;4991985;28;20217;-72
2023/03/23 03:50:38;;;;;;;0.65;0.60;;;12.30;99.90;;;;;;4988607;28;20209;-70
2023/03/23 03:53:07;;;;;;;0.60;0.43;;;12.40;99.90;;;;;;4989938;28;20217;-73
2023/03/23 03:55:35;;;;;;;0.57;0.38;;;12.40;99.90;;;;;;4991148;28;20210;-73
2023/03/23 03:58:02;;;;;;;0.50;0.30;;;12.50;99.90;;;;;;4982891;28;20202;-71
2023/03/23 04:00:29;;;;;;;0.50;0.30;;;12.50;99.90;;;;;;5007169;28;20347;-70
2023/03/23 04:02:59;;;;;;;0.50;0.30;;;12.50;99.90;;;;;;5008296;28;20851;-70
2023/03/23 04:05:28;;;;;;;0.50;0.40;;;12.50;99.90;;;;;;4993110;28;20201;-71
2023/03/23 04:08:01;;;;;;;0.50;0.30;;;12.50;99.90;;;;;;5009377;28;20225;-70
2023/03/23 04:10:31;;;;;;;0.70;0.40;;;12.50;99.90;;;;;;4992704;28;20205;-70
2023/03/23 04:12:58;;;;;;;0.60;0.40;;;12.50;99.90;;;;;;4992513;28;20201;-70
2023/03/23 04:15:25;;;;;;;0.50;0.30;;;12.50;99.90;;;;;;5008653;28;20695;-71
2023/03/23 04:17:52;;;;;;;0.70;0.50;;;12.50;99.90;;;;;;5007927;28;20209;-71
2023/03/23 04:20:19;;;;;;;0.50;0.45;;;12.50;99.90;;;;;;5008796;28;20215;-71
2023/03/23 04:22:49;;;;;;;0.50;0.40;;;12.50;99.90;;;;;;5010250;28;20220;-71
2023/03/23 04:25:20;;;;;;;1.67;0.85;;;12.40;99.90;;;;;;5008992;28;20205;-72
2023/03/23 04:27:52;;;;;;;0.50;0.40;;;12.50;99.90;;;;;;5008740;28;20252;-71
2023/03/23 04:30:21;;;;;;;0.60;0.40;;;12.50;99.90;;;;;;4991801;28;20205;-73
2023/03/23 04:32:51;;;;;;;0.60;0.45;;;12.60;99.90;;;;;;4992377;28;20201;-71
2023/03/23 04:35:20;;;;;;;0.50;0.40;;;12.60;99.90;;;;;;4989093;28;20697;-70
2023/03/23 04:37:49;;;;;;;0.50;0.40;;;12.70;99.90;;;;;;4997613;28;20194;-71
2023/03/23 04:40:17;;;;;;;0.70;0.55;;;12.70;99.90;;;;;;5009636;28;20206;-73
2023/03/23 04:42:46;;;;;;;0.50;0.30;;;12.80;99.90;;;;;;5001159;28;20255;-70
2023/03/23 04:45:21;;;;;;;0.50;0.30;;;12.80;99.90;;;;;;5000023;28;20279;-71
2023/03/23 04:47:52;;;;;;;0.50;0.30;;;12.80;99.90;;;;;;4990588;28;20220;-70
2023/03/23 04:50:21;;;;;;;0.50;0.40;;;12.80;99.90;;;;;;5006543;28;20280;-70
2023/03/23 04:52:51;;;;;;;0.50;0.30;;;12.90;99.90;;;;;;4990640;28;20216;-71
2023/03/23 04:55:19;;;;;;;0.50;0.40;;;12.90;99.90;;;;;;5008409;28;20208;-72
2023/03/23 04:57:46;;;;;;;0.50;0.30;;;12.90;99.90;;;;;;4992327;28;20283;-73
2023/03/23 05:00:16;;;;;;;0.50;0.30;;;12.90;99.90;;;;;;5008292;28;20671;-72
2023/03/23 05:02:44;;;;;;;0.50;0.40;;;12.90;99.90;;;;;;5007448;28;20208;-71
2023/03/23 05:05:12;;;;;;;0.50;0.30;;;12.80;99.90;;;;;;5007864;28;20209;-72
2023/03/23 05:07:40;;;;;;;0.50;0.40;;;12.80;99.90;;;;;;4990349;28;20228;-72
2023/03/23 05:10:11;;;;;;;0.50;0.30;;;12.80;99.90;;;;;;5005992;28;20222;-71
2023/03/23 05:12:38;;;;;;;0.70;0.40;;;12.70;99.90;;;;;;4996756;28;20198;-72
2023/03/23 05:15:07;;;;;;;0.60;0.40;;;12.70;99.90;;;;;;4974468;28;20210;-72
2023/03/23 05:17:35;;;;;;;0.50;0.30;;;12.70;99.90;;;;;;4996880;28;20218;-71
2023/03/23 05:20:04;;;;;;;0.50;0.40;;;12.70;99.90;;;;;;4993978;28;20219;-71
2023/03/23 05:22:32;;;;;;;0.50;0.30;;;12.60;99.90;;;;;;4994097;28;20718;-72
2023/03/23 05:24:58;;;;;;;0.60;0.50;;;12.70;99.90;;;;;;5011103;28;20214;-73
2023/03/23 05:27:27;;;;;;;1.63;1.52;;;12.70;99.90;;;;;;5011175;28;20225;-71
2023/03/23 05:29:54;;;;;;;0.60;0.43;;;12.70;99.90;;;;;;5006390;28;20252;-72
2023/03/23 05:32:28;;;;;;;0.70;0.45;;;12.70;99.90;;;;;;5011508;28;20678;-72
2023/03/23 05:34:56;;;;;;;0.50;0.30;;;12.70;99.90;;;;;;4993600;28;20212;-70
2023/03/23 05:37:23;;;;;;;0.70;0.55;;;12.70;99.90;;;;;;4989907;28;20201;-73
2023/03/23 05:39:53;;;;;;;0.50;0.40;;;12.70;99.90;;;;;;5009541;28;20837;-69
2023/03/23 05:42:20;;;;;;;0.57;0.40;;;12.70;99.90;;;;;;5001190;28;20210;-67
2023/03/23 05:44:47;;;;;;;0.95;0.40;;;12.70;99.90;;;;;;5000110;28;20204;-67
2023/03/23 05:47:15;;;;;;;0.80;0.60;;;12.70;99.90;;;;;;5008985;28;20696;-67
2023/03/23 05:49:41;;;;;;;0.50;0.40;;;12.60;99.90;;;;;;4988515;28;20243;-67
2023/03/23 05:52:10;;;;;;;0.50;0.40;;;12.60;99.90;;;;;;4990387;28;20278;-67
2023/03/23 05:54:37;;;;;;;0.50;0.30;;;12.60;99.90;;;;;;5006231;28;20201;-67
2023/03/23 05:57:05;;;;;;;0.50;0.40;;;12.50;99.90;;;;;;5008219;28;20370;-67
2023/03/23 05:59:33;;;;;;;0.50;0.30;;;12.50;99.90;;;;;;5006896;28;20243;-66
2023/03/23 06:02:00;;;;;;;0.50;0.30;;;12.50;99.90;;;;;;5006797;28;20201;-67
2023/03/23 06:04:27;;;;;;;0.50;0.40;;;12.50;99.90;;;;;;5007176;28;20208;-68
2023/03/23 06:06:54;;;;;;;0.50;0.30;;;12.50;99.90;;;;;;5006180;28;21514;-66
2023/03/23 06:09:24;;;;;;;0.50;0.30;;;12.50;99.90;;;;;;4988726;28;20225;-67
2023/03/23 06:11:51;;;;;;;0.50;0.30;;;12.50;99.90;;;;;;4988426;28;20228;-67
2023/03/23 06:14:18;;;;;;;0.50;0.40;;;12.50;99.90;;;;;;5003742;28;20194;-67
2023/03/23 06:16:45;;;;;;;0.60;0.40;;;12.50;99.90;;;;;;5000947;28;20197;-66
2023/03/23 06:19:12;;;;;;;0.50;0.40;;;12.40;99.90;;;;;;4993079;28;20220;-68
2023/03/23 06:21:39;;;;;;;0.50;0.30;;;12.50;99.90;;;;;;4990364;28;20208;-67
2023/03/23 06:24:06;;;;;;;0.60;0.50;;;12.40;99.90;;;;;;5006989;28;20205;-66
2023/03/23 06:26:37;;;;;;;0.73;0.40;;;12.40;99.90;;;;;;5006874;28;20201;-67
2023/03/23 06:29:10;;;;;;;0.68;0.68;;;12.40;99.90;;;;;;5006388;28;20221;-68
2023/03/23 06:31:39;;;;;;;0.50;0.40;;;12.40;99.90;;;;;;5004886;28;20201;-67
2023/03/23 06:34:05;;;;;;;0.50;0.40;;;12.40;99.90;;;;;;5008986;28;20213;-67
2023/03/23 06:36:32;;;;;;;0.60;0.47;;;12.40;99.90;;;;;;5005104;28;20202;-67
2023/03/23 06:38:59;;;;;;;0.50;0.40;;;12.40;99.90;;;;;;4988060;28;20224;-67
2023/03/23 06:41:26;;;;;;;0.50;0.40;;;12.40;99.90;;;;;;5007485;28;20295;-67
2023/03/23 06:43:54;;;;;;;0.60;0.50;;;12.40;99.90;;;;;;5004869;28;20691;-67
2023/03/23 06:46:21;;;;;;;0.50;0.35;;;12.40;99.90;;;;;;5007139;28;20543;-67
2023/03/23 06:48:49;;;;;;;0.57;0.40;;;12.40;99.90;;;;;;5008603;28;20225;-67
2023/03/23 06:51:16;;;;;;;0.70;0.40;;;12.40;99.90;;;;;;5007163;28;21367;-67
2023/03/23 06:53:43;;;;;;;0.50;0.30;;;12.40;99.90;;;;;;5007090;28;20205;-68
2023/03/23 06:56:11;;;;;;;0.60;0.40;;;12.40;99.90;;;;;;5006155;28;20898;-68
2023/03/23 06:58:38;;;;;;;0.50;0.40;;;12.40;99.90;;;;;;5006834;28;20312;-68
2023/03/23 07:01:08;;;;;;;0.55;0.45;;;12.50;99.90;;;;;;5006411;28;20197;-68
2023/03/23 07:03:35;;;;;;;0.50;0.30;;;12.50;99.90;;;;;;5004962;28;20224;-70
2023/03/23 07:06:02;;;;;;;0.70;0.52;;;12.50;99.90;;;;;;4988330;28;20205;-68
2023/03/23 07:08:28;;;;;;;0.60;0.40;;;12.50;99.90;;;;;;5005787;28;20616;-67
2023/03/23 07:10:56;;;;;;;1.02;0.82;;;12.50;99.90;;;;;;5004910;28;20205;-68
2023/03/23 07:13:24;;;;;;;0.60;0.50;;;12.50;99.90;;;;;;5002060;28;20264;-68
2023/03/23 07:15:51;;;;;;;0.50;0.30;;;12.50;99.90;;;;;;4991211;28;20205;-68
2023/03/23 07:18:20;;;;;;;0.50;0.35;;;12.50;99.90;;;;;;5009053;28;20213;-68
2023/03/23 07:20:48;;;;;;;0.70;0.50;;;12.50;99.90;;;;;;5007215;28;20209;-68
2023/03/23 07:23:15;;;;;;;0.63;0.40;;;12.50;99.90;;;;;;5012629;28;20630;-67
2023/03/23 07:25:44;;;;;;;0.50;0.30;;;12.50;99.90;;;;;;5013384;28;20205;-68
2023/03/23 07:28:11;;;;;;;0.60;0.40;;;12.50;99.90;;;;;;5013930;28;20221;-68
2023/03/23 07:30:39;;;;;;;0.57;0.50;;;12.50;99.90;;;;;;5013872;28;20243;-68
2023/03/23 07:33:06;;;;;;;0.60;0.40;;;12.50;99.90;;;;;;5013794;28;20216;-68
2023/03/23 07:35:35;;;;;;;0.60;0.50;;;12.40;99.90;;;;;;5013421;28;20233;-68
2023/03/23 07:38:03;;;;;;;0.60;0.50;;;12.50;99.90;;;;;;4996178;28;20201;-68
2023/03/23 07:40:33;;;;;;;0.60;0.43;;;12.40;99.90;;;;;;4996110;28;20198;-68
2023/03/23 07:43:01;;;;;;;0.60;0.50;;;12.50;99.90;;;;;;5013616;28;20206;-68
2023/03/23 07:45:28;;;;;;;0.50;0.30;;;12.50;99.90;;;;;;5013329;28;20572;-68
2023/03/23 07:47:55;;;;;;;0.60;0.40;;;12.50;99.90;;;;;;5021327;28;20307;-68
2023/03/23 07:50:24;;;;;;;0.60;0.50;;;12.50;99.90;;;;;;5021624;28;20696;-68
2023/03/23 07:52:53;;;;;;;1.05;0.80;;;12.60;99.90;;;;;;5013153;28;20223;-68
2023/03/23 07:55:20;;;;;;;0.50;0.30;;;12.60;99.90;;;;;;4995646;28;20292;-68
2023/03/23 07:57:48;;;;;;;0.60;0.40;;;12.70;99.90;;;;;;4995738;28;20272;-69
2023/03/23 08:00:18;;;;;;;0.50;0.30;;;12.70;99.90;;;;;;5013785;28;20240;-68
2023/03/23 08:02:45;;;;;;;0.50;0.40;;;12.70;99.90;;;;;;4995775;28;20285;-68
2023/03/23 08:05:13;;;;;;;0.50;0.40;;;12.80;99.90;;;;;;5005090;28;20252;-68
2023/03/23 08:07:40;;;;;;;0.80;0.70;;;12.80;99.90;;;;;;5012856;28;20229;-68
2023/03/23 08:10:11;;;;;;;0.60;0.50;;;12.80;99.90;;;;;;5012934;28;20225;-68
2023/03/23 08:12:38;;;;;;;0.50;0.30;;;12.80;99.90;;;;;;5013156;28;20561;-68
2023/03/23 08:15:07;;;;;;;0.50;0.40;;;12.80;99.90;;;;;;5012927;28;20201;-68
2023/03/23 08:17:34;;;;;;;0.50;0.40;;;12.80;99.90;;;;;;5012797;28;20209;-68
2023/03/23 08:20:10;;;;;;;0.90;0.65;;;12.80;99.90;;;;;;5028891;28;20629;-68
2023/03/23 08:22:37;;;;;;;0.50;0.40;;;12.80;99.90;;;;;;5012874;28;20232;-68
2023/03/23 08:25:06;;;;;;;0.60;0.40;;;12.80;99.90;;;;;;4994718;28;20251;-68
2023/03/23 08:27:34;;;;;;;0.60;0.43;;;12.80;99.90;;;;;;4994911;28;20225;-68
2023/03/23 08:30:01;;;;;;;0.50;0.30;;;12.80;99.90;;;;;;4995215;28;20221;-68
2023/03/23 08:32:28;;;;;;;0.50;0.40;;;12.80;99.90;;;;;;4995099;28;20237;-68
2023/03/23 08:34:55;;;;;;;0.50;0.40;;;12.80;99.90;;;;;;4995010;28;20204;-68
2023/03/23 08:37:22;;;;;;;0.60;0.50;;;12.80;99.90;;;;;;4995003;28;20577;-68
2023/03/23 08:39:52;;;;;;;0.50;0.40;;;12.80;99.90;;;;;;5012429;28;20225;-68
2023/03/23 08:42:19;;;;;;;0.50;0.40;;;12.80;99.90;;;;;;5012699;28;20292;-68
2023/03/23 08:44:48;;;;;;;0.52;0.40;;;12.80;99.90;;;;;;5012385;28;20664;-68
2023/03/23 08:47:15;;;;;;;0.50;0.30;;;12.80;99.90;;;;;;5015620;28;20201;-68
2023/03/23 08:49:42;;;;;;;0.50;0.40;;;12.80;99.90;;;;;;5024567;28;20217;-68
2023/03/23 08:52:09;;;;;;;0.60;0.55;;;12.80;99.90;;;;;;5012485;28;20284;-68
2023/03/23 08:54:36;;;;;;;1.25;1.15;;;12.80;99.90;;;;;;5012194;28;20207;-68
2023/03/23 08:57:03;;;;;;;0.50;0.38;;;12.90;99.90;;;;;;5012188;28;20201;-68
2023/03/23 08:59:30;;;;;;;0.70;0.40;;;13.00;99.90;;;;;;5011640;28;20255;-68
2023/03/23 09:01:58;;;;;;;0.50;0.40;;;13.10;99.90;;;;;;5012282;28;20584;-68
2023/03/23 09:04:26;;;;;;;0.50;0.40;;;13.20;99.90;;;;;;5012078;28;20632;-68
2023/03/23 09:06:52;;;;;;;0.50;0.40;;;13.30;99.90;;;;;;5011982;28;20205;-68
2023/03/23 09:09:19;;;;;;;0.60;0.50;;;13.30;99.90;;;;;;5011987;28;20229;-68
2023/03/23 09:11:46;;;;;;;0.60;0.40;;;13.40;99.90;;;;;;5011730;28;20285;-68
2023/03/23 09:14:13;;;;;;;0.50;0.40;;;13.40;99.90;;;;;;5011692;28;20201;-68
2023/03/23 09:16:40;;;;;;;0.50;0.40;;;13.50;99.90;;;;;;5018605;28;20205;-68
2023/03/23 09:19:09;;;;;;;0.50;0.40;;;13.50;99.90;;;;;;5003352;28;20729;-68
2023/03/23 09:21:37;;;;;;;0.50;0.40;;;13.50;99.90;;;;;;5011594;28;20281;-68
2023/03/23 09:24:04;;;;;;;0.50;0.35;;;13.60;99.90;;;;;;5011598;28;20216;-68
2023/03/23 09:26:31;;;;;;;0.70;0.50;;;13.70;99.90;;;;;;5011706;28;20205;-68
2023/03/23 09:28:58;;;;;;;0.50;0.40;;;13.80;99.90;;;;;;5011406;28;20233;-68
2023/03/23 09:31:27;;;;;;;0.60;0.50;;;13.90;99.90;;;;;;5011216;28;20284;-68
2023/03/23 09:33:55;;;;;;;0.50;0.30;;;13.90;99.90;;;;;;5011409;28;20247;-68
2023/03/23 09:36:25;;;;;;;0.50;0.30;;;14.10;99.90;;;;;;5010624;28;20314;-68
2023/03/23 09:38:52;;;;;;;0.60;0.45;;;14.20;99.90;;;;;;5011545;28;20653;-68
2023/03/23 09:41:38;;;;;;;0.50;0.40;;;14.30;99.90;;;;;;5011076;28;20201;-69
2023/03/23 09:44:11;;;;;;;0.50;0.30;;;14.60;99.90;;;;;;4993780;28;20205;-68
2023/03/23 09:46:53;;;;;;;0.80;0.77;;;14.80;99.90;;;;;;5017630;28;20283;-69
2023/03/23 09:49:24;;;;;;;1.10;0.90;;;15.00;99.90;;;;;;5011601;28;20232;-68
2023/03/23 09:51:55;;;;;;;0.50;0.30;;;15.00;99.90;;;;;;4993699;28;20799;-68
2023/03/23 09:54:26;;;;;;;0.50;0.38;;;14.80;99.90;;;;;;4993648;28;20228;-68
2023/03/23 09:56:55;;;;;;;0.50;0.30;;;14.70;99.90;;;;;;5011277;28;20204;-68
2023/03/23 09:59:27;;;;;;;0.50;0.30;;;14.60;99.90;;;;;;5011010;28;20612;-68
2023/03/23 10:01:59;;;;;;;0.73;0.40;;;14.50;99.90;;;;;;5010920;28;20205;-68
2023/03/23 10:04:34;;;;;;;0.50;0.30;;;14.40;99.90;;;;;;4993766;28;20204;-68
2023/03/23 10:07:12;;;;;;;0.50;0.40;;;14.40;99.90;;;;;;5011287;28;20204;-68
2023/03/23 10:09:39;;;;;;;0.60;0.50;;;14.40;99.90;;;;;;4993637;28;20228;-68
2023/03/23 10:12:16;;;;;;;0.50;0.30;;;14.30;99.90;;;;;;5010725;28;20201;-68
2023/03/23 10:15:00;;;;;;;0.50;0.30;;;14.20;99.90;;;;;;5010949;28;20204;-67
2023/03/23 10:17:33;;;;;;;0.50;0.30;;;14.10;99.90;;;;;;5006167;28;20215;-68
2023/03/23 10:20:20;;;;;;;0.55;0.38;;;14.00;99.90;;;;;;5013958;28;20225;-68
2023/03/23 10:22:53;;;;;;;0.60;0.60;;;13.90;99.90;;;;;;5010946;28;20201;-68
2023/03/23 10:25:24;;;;;;;0.75;0.50;;;13.90;99.90;;;;;;5011035;28;20206;-68
2023/03/23 10:27:57;;;;;;;0.50;0.40;;;13.80;99.90;;;;;;5010742;28;20672;-68
2023/03/23 10:30:30;;;;;;;0.50;0.30;;;13.70;99.90;;;;;;5011172;28;20204;-68
2023/03/23 10:33:02;;;;;;;0.50;0.40;;;13.70;99.90;;;;;;5011100;28;20201;-68
2023/03/23 10:35:34;;;;;;;0.50;0.30;;;13.80;99.90;;;;;;5010930;28;20211;-68
2023/03/23 10:38:05;;;;;;;0.55;0.38;;;13.70;99.90;;;;;;5010782;28;20615;-68
2023/03/23 10:40:33;;;;;;;0.50;0.40;;;13.70;99.90;;;;;;5010990;28;20292;-68
2023/03/23 10:43:00;;;;;;;0.80;0.50;;;13.70;99.90;;;;;;5010888;28;20213;-68
2023/03/23 10:45:29;;;;;;;0.50;0.40;;;13.70;99.90;;;;;;5010707;28;20232;-68
2023/03/23 10:48:00;;;;;;;0.50;0.30;;;13.80;99.90;;;;;;5017250;28;20201;-68
2023/03/23 10:50:30;;;;;;;0.50;0.40;;;13.80;99.90;;;;;;5008297;28;20201;-67
2023/03/23 10:52:59;;;;;;;1.08;0.93;;;13.90;99.90;;;;;;4996737;28;20209;-68
2023/03/23 10:55:40;;;;;;;0.60;0.40;;;13.90;99.90;;;;;;5014496;28;20564;-68
2023/03/23 10:58:10;;;;;;;0.50;0.38;;;13.90;99.90;;;;;;5014102;28;20201;-68
2023/03/23 11:00:43;;;;;;;0.60;0.40;;;13.90;99.90;;;;;;5014152;28;20229;-68
2023/03/23 11:03:25;;;;;;;0.60;0.40;;;13.90;99.90;;;;;;5014321;28;20680;-68
2023/03/23 11:05:57;;;;;;;0.82;0.50;;;14.00;99.90;;;;;;5014405;28;20209;-68
2023/03/23 11:08:26;;;;;;;0.50;0.30;;;14.00;99.90;;;;;;4996480;28;20634;-68
2023/03/23 11:10:56;;;;;;;0.50;0.30;;;14.00;99.90;;;;;;5014071;28;20616;-68
2023/03/23 11:13:30;;;;;;;0.60;0.40;;;14.10;99.90;;;;;;5006156;28;20201;-68
2023/03/23 11:15:58;;;;;;;0.50;0.40;;;14.20;99.90;;;;;;4996747;28;20598;-68
2023/03/23 11:18:27;;;;;;;0.57;0.40;;;14.30;99.90;;;;;;5014345;28;20556;-68
2023/03/23 11:20:57;;;;;;;0.50;0.30;;;14.50;99.90;;;;;;4996618;28;20206;-68
2023/03/23 11:23:27;;;;;;;0.50;0.30;;;14.60;99.90;;;;;;4996377;28;20200;-68
2023/03/23 11:25:59;;;;;;;0.50;0.30;;;14.70;99.90;;;;;;5014091;28;20201;-68
2023/03/23 11:28:35;;;;;;;0.50;0.30;;;14.80;99.90;;;;;;5013675;28;20709;-68
2023/03/23 11:31:05;;;;;;;0.50;0.40;;;14.90;99.90;;;;;;5013864;28;20211;-68
2023/03/23 11:33:38;;;;;;;0.50;0.30;;;14.90;99.90;;;;;;5013780;28;20666;-68
2023/03/23 11:36:08;;;;;;;0.60;0.43;;;14.90;99.90;;;;;;5013881;28;20213;-68
2023/03/23 11:38:35;;;;;;;0.50;0.40;;;15.00;99.90;;;;;;5013634;28;20221;-67
2023/03/23 11:41:11;;;;;;;0.50;0.30;;;15.30;99.90;;;;;;4996008;28;20205;-68
2023/03/23 11:43:41;;;;;;;0.80;0.50;;;15.60;99.90;;;;;;5013678;28;20205;-68
2023/03/23 11:46:17;;;;;;;0.50;0.30;;;15.70;99.90;;;;;;4997310;28;20216;-69
2023/03/23 11:48:52;;;;;;;0.60;0.47;;;16.00;99.90;;;;;;5015342;28;20289;-69
2023/03/23 11:51:24;;;;;;;0.98;0.60;;;16.30;99.90;;;;;;4996635;28;20214;-68
2023/03/23 11:53:58;;;;;;;0.50;0.30;;;16.60;99.90;;;;;;4995932;28;20276;-68
2023/03/23 11:56:30;;;;;;;0.60;0.40;;;16.80;99.90;;;;;;5005438;28;20208;-69
2023/03/23 11:58:59;;;;;;;0.50;0.30;;;16.50;99.90;;;;;;4994786;28;20276;-68
2023/03/23 12:01:47;;;;;;;1.08;0.40;;;16.40;99.90;;;;;;5013296;28;20232;-68
2023/03/23 12:04:31;;;;;;;0.73;0.57;;;16.20;99.90;;;;;;5013357;28;20215;-68
2023/03/23 12:07:09;;;;;;;0.50;0.30;;;15.60;99.90;;;;;;5013267;28;20233;-68
2023/03/23 12:09:44;;;;;;;0.55;0.35;;;15.40;99.90;;;;;;4995276;28;20227;-68
2023/03/23 12:12:22;;;;;;;1.25;1.08;;;15.30;99.90;;;;;;5012897;28;20212;-68
2023/03/23 12:14:56;;;;;;;0.50;0.30;;;15.30;99.90;;;;;;5013133;28;20205;-68
2023/03/23 12:17:34;;;;;;;0.50;0.40;;;15.10;99.90;;;;;;5020782;28;20572;-68
2023/03/23 12:20:17;;;;;;;0.55;0.40;;;14.90;99.90;;;;;;5021125;28;20485;-68
2023/03/23 12:22:55;;;;;;;0.50;0.30;;;14.90;99.90;;;;;;5012540;28;20205;-68
2023/03/23 12:25:48;;;;;;;0.50;0.30;;;15.00;99.90;;;;;;5012988;28;20541;-68
2023/03/23 12:28:25;;;;;;;0.50;0.40;;;15.40;99.90;;;;;;5012733;28;20217;-68
2023/03/23 12:30:57;;;;;;;0.50;0.30;;;15.90;99.90;;;;;;5012659;28;20280;-69
2023/03/23 12:33:34;;;;;;;0.50;0.40;;;15.90;99.90;;;;;;5012258;28;20197;-68
2023/03/23 12:36:12;;;;;;;0.60;0.40;;;15.70;99.90;;;;;;4995243;28;20197;-68
2023/03/23 12:39:07;;;;;;;0.50;0.38;;;15.70;99.90;;;;;;5012689;28;20217;-68
2023/03/23 12:41:42;;;;;;;0.50;0.30;;;15.70;99.90;;;;;;4962670;28;20300;-68
2023/03/23 12:44:13;;;;;;;0.50;0.30;;;15.70;99.90;;;;;;5012164;28;20207;-68
2023/03/23 12:47:04;;;;;;;0.50;0.40;;;15.80;99.90;;;;;;5017541;28;20239;-68
2023/03/23 12:49:36;;;;;;;0.50;0.32;;;15.80;99.90;;;;;;5007882;28;20247;-68
2023/03/23 12:52:11;;;;;;;0.50;0.40;;;15.70;99.90;;;;;;5012451;28;20201;-69
2023/03/23 12:54:44;;;;;;;2.15;1.02;;;15.50;99.90;;;;;;5012048;28;20196;-68
2023/03/23 12:57:15;;;;;;;1.15;0.50;;;15.40;99.90;;;;;;4994793;28;20283;-68
2023/03/23 12:59:50;;;;;;;0.50;0.30;;;15.60;99.90;;;;;;4991172;28;20736;-68
2023/03/23 13:02:23;;;;;;;0.50;0.40;;;15.60;99.90;;;;;;4992572;28;20193;-68
2023/03/23 13:04:57;;;;;;;0.50;0.30;;;15.80;99.90;;;;;;4992638;28;20455;-68